Terminal Aerodrome Forecast
Issued by NWS Blacksburg, VA

Home | Current Version | Previous Version | Text Only | Print | Product List | Glossary On
Versions: 1 2 3 4 5 6 7 8 9 10 11 12 13 14 15 16 17 18 19 20 21 22 23 24 25 26 27 28 29 30 31 32 33 34 35 36 37 38 39 40 41
000
FTUS41 KRNK 221741
TAFLYH
TAF
KLYH 221741Z 2218/2318 21003KT P6SM -SHRA BKN040
     FM230000 29005KT P6SM SCT090 OVC250
     FM230800 02003KT 4SM BR BKN015 BKN100
     FM231400 03005KT P6SM -SHRA OVC015
     FM231700 04004KT P6SM -SHRA BKN025
      AMD NOT SKED=

USA.gov is the U.S. government's official web portal to all federal, state and local government web resources and services.